sensor_id;sensor_type;location;lat;lon;timestamp;P1;durP1;ratioP1;P2;durP2;ratioP2
71606;SDS011;60641;53.556;9.914;2022-12-11T00:02:00;15.90;;;6.20;;
71606;SDS011;60641;53.556;9.914;2022-12-11T00:04:27;16.80;;;7.30;;
71606;SDS011;60641;53.556;9.914;2022-12-11T00:06:53;16.20;;;7.10;;
71606;SDS011;60641;53.556;9.914;2022-12-11T00:09:20;14.70;;;7.20;;
71606;SDS011;60641;53.556;9.914;2022-12-11T00:11:47;15.60;;;7.00;;
71606;SDS011;60641;53.556;9.914;2022-12-11T00:14:14;15.20;;;6.80;;
71606;SDS011;60641;53.556;9.914;2022-12-11T00:16:40;18.10;;;7.50;;
71606;SDS011;60641;53.556;9.914;2022-12-11T00:19:07;16.30;;;7.10;;
71606;SDS011;60641;53.556;9.914;2022-12-11T00:21:34;16.50;;;5.90;;
71606;SDS011;60641;53.556;9.914;2022-12-11T00:24:00;16.10;;;6.40;;
71606;SDS011;60641;53.556;9.914;2022-12-11T00:26:27;16.40;;;6.80;;
71606;SDS011;60641;53.556;9.914;2022-12-11T00:28:54;16.90;;;7.20;;
71606;SDS011;60641;53.556;9.914;2022-12-11T00:31:21;16.20;;;7.10;;
71606;SDS011;60641;53.556;9.914;2022-12-11T00:33:48;10.70;;;4.30;;
71606;SDS011;60641;53.556;9.914;2022-12-11T00:36:17;15.30;;;6.70;;
71606;SDS011;60641;53.556;9.914;2022-12-11T00:38:46;14.60;;;6.80;;
71606;SDS011;60641;53.556;9.914;2022-12-11T00:41:13;14.70;;;5.80;;
71606;SDS011;60641;53.556;9.914;2022-12-11T00:43:40;13.80;;;5.50;;
71606;SDS011;60641;53.556;9.914;2022-12-11T00:46:07;12.80;;;5.60;;
71606;SDS011;60641;53.556;9.914;2022-12-11T00:48:33;14.00;;;6.50;;
71606;SDS011;60641;53.556;9.914;2022-12-11T00:51:00;16.00;;;7.00;;
71606;SDS011;60641;53.556;9.914;2022-12-11T00:53:27;15.90;;;6.40;;
71606;SDS011;60641;53.556;9.914;2022-12-11T00:55:54;14.80;;;6.20;;
71606;SDS011;60641;53.556;9.914;2022-12-11T00:58:21;16.20;;;6.00;;
71606;SDS011;60641;53.556;9.914;2022-12-11T01:00:47;14.80;;;5.90;;
71606;SDS011;60641;53.556;9.914;2022-12-11T01:03:15;11.70;;;4.10;;
71606;SDS011;60641;53.556;9.914;2022-12-11T01:05:49;16.80;;;6.30;;
71606;SDS011;60641;53.556;9.914;2022-12-11T01:08:18;14.80;;;6.40;;
71606;SDS011;60641;53.556;9.914;2022-12-11T01:10:44;15.60;;;6.10;;
71606;SDS011;60641;53.556;9.914;2022-12-11T01:13:11;12.70;;;5.60;;
71606;SDS011;60641;53.556;9.914;2022-12-11T01:15:39;14.90;;;5.80;;
71606;SDS011;60641;53.556;9.914;2022-12-11T01:18:07;10.80;;;4.20;;
71606;SDS011;60641;53.556;9.914;2022-12-11T01:20:34;16.70;;;6.20;;
71606;SDS011;60641;53.556;9.914;2022-12-11T01:23:03;14.90;;;6.00;;
71606;SDS011;60641;53.556;9.914;2022-12-11T01:25:29;16.50;;;6.90;;
71606;SDS011;60641;53.556;9.914;2022-12-11T01:27:58;12.80;;;5.20;;
71606;SDS011;60641;53.556;9.914;2022-12-11T01:30:24;12.30;;;4.70;;
71606;SDS011;60641;53.556;9.914;2022-12-11T01:32:51;15.60;;;6.40;;
71606;SDS011;60641;53.556;9.914;2022-12-11T01:35:18;13.90;;;5.70;;
71606;SDS011;60641;53.556;9.914;2022-12-11T01:37:45;16.10;;;6.70;;
71606;SDS011;60641;53.556;9.914;2022-12-11T01:40:13;15.50;;;7.10;;
71606;SDS011;60641;53.556;9.914;2022-12-11T01:42:40;15.10;;;6.80;;
71606;SDS011;60641;53.556;9.914;2022-12-11T01:48:07;14.00;;;6.50;;
71606;SDS011;60641;53.556;9.914;2022-12-11T01:50:49;19.30;;;7.30;;
71606;SDS011;60641;53.556;9.914;2022-12-11T01:53:22;15.10;;;6.90;;
71606;SDS011;60641;53.556;9.914;2022-12-11T01:55:51;14.70;;;6.70;;
71606;SDS011;60641;53.556;9.914;2022-12-11T01:58:19;17.50;;;6.90;;
71606;SDS011;60641;53.556;9.914;2022-12-11T02:00:46;15.60;;;6.80;;
71606;SDS011;60641;53.556;9.914;2022-12-11T02:03:13;16.20;;;7.20;;
71606;SDS011;60641;53.556;9.914;2022-12-11T02:05:39;15.70;;;7.10;;
71606;SDS011;60641;53.556;9.914;2022-12-11T02:08:05;16.00;;;6.50;;
71606;SDS011;60641;53.556;9.914;2022-12-11T02:10:47;15.50;;;6.70;;
71606;SDS011;60641;53.556;9.914;2022-12-11T02:18:59;15.10;;;7.10;;
71606;SDS011;60641;53.556;9.914;2022-12-11T02:21:33;17.50;;;7.00;;
71606;SDS011;60641;53.556;9.914;2022-12-11T02:29:25;15.50;;;6.60;;
71606;SDS011;60641;53.556;9.914;2022-12-11T02:32:02;16.80;;;7.20;;
71606;SDS011;60641;53.556;9.914;2022-12-11T02:34:39;14.40;;;7.00;;
71606;SDS011;60641;53.556;9.914;2022-12-11T02:37:25;18.60;;;7.80;;
71606;SDS011;60641;53.556;9.914;2022-12-11T02:39:53;15.80;;;7.50;;
71606;SDS011;60641;53.556;9.914;2022-12-11T02:42:20;16.20;;;7.10;;
71606;SDS011;60641;53.556;9.914;2022-12-11T02:44:47;15.80;;;6.50;;
71606;SDS011;60641;53.556;9.914;2022-12-11T02:47:15;16.30;;;7.40;;
71606;SDS011;60641;53.556;9.914;2022-12-11T02:49:43;15.90;;;6.90;;
71606;SDS011;60641;53.556;9.914;2022-12-11T02:52:13;14.90;;;7.00;;
71606;SDS011;60641;53.556;9.914;2022-12-11T02:54:41;15.10;;;7.00;;
71606;SDS011;60641;53.556;9.914;2022-12-11T02:57:17;14.40;;;6.20;;
71606;SDS011;60641;53.556;9.914;2022-12-11T02:59:48;16.80;;;7.10;;
71606;SDS011;60641;53.556;9.914;2022-12-11T03:02:15;15.30;;;7.20;;
71606;SDS011;60641;53.556;9.914;2022-12-11T03:04:42;16.50;;;7.60;;
71606;SDS011;60641;53.556;9.914;2022-12-11T03:07:11;16.00;;;7.00;;
71606;SDS011;60641;53.556;9.914;2022-12-11T03:09:43;14.40;;;6.40;;
71606;SDS011;60641;53.556;9.914;2022-12-11T03:12:12;16.00;;;7.00;;
71606;SDS011;60641;53.556;9.914;2022-12-11T03:14:41;14.10;;;5.80;;
71606;SDS011;60641;53.556;9.914;2022-12-11T03:19:36;10.80;;;3.70;;
71606;SDS011;60641;53.556;9.914;2022-12-11T03:22:08;15.80;;;6.30;;
71606;SDS011;60641;53.556;9.914;2022-12-11T03:27:14;13.20;;;5.50;;
71606;SDS011;60641;53.556;9.914;2022-12-11T03:35:22;12.10;;;4.90;;
71606;SDS011;60641;53.556;9.914;2022-12-11T03:37:51;16.10;;;6.80;;
71606;SDS011;60641;53.556;9.914;2022-12-11T03:40:19;17.00;;;7.40;;
71606;SDS011;60641;53.556;9.914;2022-12-11T03:42:48;13.90;;;5.50;;
71606;SDS011;60641;53.556;9.914;2022-12-11T03:45:17;16.80;;;7.30;;
71606;SDS011;60641;53.556;9.914;2022-12-11T03:47:44;18.30;;;7.60;;
71606;SDS011;60641;53.556;9.914;2022-12-11T03:50:17;15.70;;;6.30;;
71606;SDS011;60641;53.556;9.914;2022-12-11T03:52:45;13.50;;;6.00;;
71606;SDS011;60641;53.556;9.914;2022-12-11T03:55:14;15.50;;;7.20;;
71606;SDS011;60641;53.556;9.914;2022-12-11T03:57:42;16.20;;;7.20;;
71606;SDS011;60641;53.556;9.914;2022-12-11T04:00:10;15.50;;;6.20;;
71606;SDS011;60641;53.556;9.914;2022-12-11T04:02:39;17.20;;;8.00;;
71606;SDS011;60641;53.556;9.914;2022-12-11T04:05:07;16.20;;;7.50;;
71606;SDS011;60641;53.556;9.914;2022-12-11T04:07:34;18.00;;;8.10;;
71606;SDS011;60641;53.556;9.914;2022-12-11T04:10:01;15.60;;;7.80;;
71606;SDS011;60641;53.556;9.914;2022-12-11T04:12:27;16.30;;;6.70;;
71606;SDS011;60641;53.556;9.914;2022-12-11T04:14:54;15.60;;;7.10;;
71606;SDS011;60641;53.556;9.914;2022-12-11T04:17:33;17.50;;;7.80;;
71606;SDS011;60641;53.556;9.914;2022-12-11T04:20:19;16.50;;;7.30;;
71606;SDS011;60641;53.556;9.914;2022-12-11T04:23:05;15.70;;;6.70;;
71606;SDS011;60641;53.556;9.914;2022-12-11T04:25:53;18.30;;;7.60;;
71606;SDS011;60641;53.556;9.914;2022-12-11T04:28:19;16.90;;;7.50;;
71606;SDS011;60641;53.556;9.914;2022-12-11T04:30:48;18.00;;;7.00;;
71606;SDS011;60641;53.556;9.914;2022-12-11T04:33:15;15.30;;;6.90;;
71606;SDS011;60641;53.556;9.914;2022-12-11T04:35:42;19.00;;;7.30;;
71606;SDS011;60641;53.556;9.914;2022-12-11T04:38:08;16.10;;;6.40;;
71606;SDS011;60641;53.556;9.914;2022-12-11T04:40:34;16.90;;;7.10;;
71606;SDS011;60641;53.556;9.914;2022-12-11T04:43:01;15.70;;;7.10;;
71606;SDS011;60641;53.556;9.914;2022-12-11T04:45:27;16.00;;;7.40;;
71606;SDS011;60641;53.556;9.914;2022-12-11T04:47:54;16.20;;;7.10;;
71606;SDS011;60641;53.556;9.914;2022-12-11T04:50:20;15.00;;;6.80;;
71606;SDS011;60641;53.556;9.914;2022-12-11T04:52:46;11.90;;;4.30;;
71606;SDS011;60641;53.556;9.914;2022-12-11T04:55:13;13.70;;;6.10;;
71606;SDS011;60641;53.556;9.914;2022-12-11T04:57:40;12.90;;;4.60;;
71606;SDS011;60641;53.556;9.914;2022-12-11T05:00:07;15.60;;;7.60;;
71606;SDS011;60641;53.556;9.914;2022-12-11T05:02:35;17.20;;;7.20;;
71606;SDS011;60641;53.556;9.914;2022-12-11T05:05:04;18.60;;;7.90;;
71606;SDS011;60641;53.556;9.914;2022-12-11T05:07:31;15.20;;;5.80;;
71606;SDS011;60641;53.556;9.914;2022-12-11T05:09:58;16.60;;;6.90;;
71606;SDS011;60641;53.556;9.914;2022-12-11T05:12:24;16.60;;;7.40;;
71606;SDS011;60641;53.556;9.914;2022-12-11T05:14:51;14.00;;;4.80;;
71606;SDS011;60641;53.556;9.914;2022-12-11T05:17:19;12.80;;;7.20;;
71606;SDS011;60641;53.556;9.914;2022-12-11T05:19:47;16.30;;;7.60;;
71606;SDS011;60641;53.556;9.914;2022-12-11T05:22:14;17.50;;;7.90;;
71606;SDS011;60641;53.556;9.914;2022-12-11T05:24:41;17.20;;;7.80;;
71606;SDS011;60641;53.556;9.914;2022-12-11T05:27:08;19.30;;;8.90;;
71606;SDS011;60641;53.556;9.914;2022-12-11T05:29:35;16.60;;;7.60;;
71606;SDS011;60641;53.556;9.914;2022-12-11T05:32:02;16.20;;;7.20;;
71606;SDS011;60641;53.556;9.914;2022-12-11T05:34:29;17.60;;;7.40;;
71606;SDS011;60641;53.556;9.914;2022-12-11T05:36:56;13.90;;;7.50;;
71606;SDS011;60641;53.556;9.914;2022-12-11T05:39:22;16.80;;;7.60;;
71606;SDS011;60641;53.556;9.914;2022-12-11T05:41:49;18.20;;;7.70;;
71606;SDS011;60641;53.556;9.914;2022-12-11T05:44:15;18.40;;;8.20;;
71606;SDS011;60641;53.556;9.914;2022-12-11T05:46:41;17.90;;;7.80;;
71606;SDS011;60641;53.556;9.914;2022-12-11T05:49:09;16.30;;;7.20;;
71606;SDS011;60641;53.556;9.914;2022-12-11T05:51:35;15.60;;;7.00;;
71606;SDS011;60641;53.556;9.914;2022-12-11T05:54:04;15.80;;;7.20;;
71606;SDS011;60641;53.556;9.914;2022-12-11T05:56:32;16.70;;;7.30;;
71606;SDS011;60641;53.556;9.914;2022-12-11T05:59:00;13.30;;;6.00;;
71606;SDS011;60641;53.556;9.914;2022-12-11T06:01:28;15.40;;;7.10;;
71606;SDS011;60641;53.556;9.914;2022-12-11T06:03:58;19.70;;;8.90;;
71606;SDS011;60641;53.556;9.914;2022-12-11T06:06:25;20.20;;;8.80;;
71606;SDS011;60641;53.556;9.914;2022-12-11T06:08:53;16.10;;;7.30;;
71606;SDS011;60641;53.556;9.914;2022-12-11T06:11:20;19.70;;;8.40;;
71606;SDS011;60641;53.556;9.914;2022-12-11T06:13:47;16.30;;;7.30;;
71606;SDS011;60641;53.556;9.914;2022-12-11T06:16:14;13.80;;;6.40;;
71606;SDS011;60641;53.556;9.914;2022-12-11T06:18:41;14.80;;;6.80;;
71606;SDS011;60641;53.556;9.914;2022-12-11T06:21:10;14.70;;;6.70;;
71606;SDS011;60641;53.556;9.914;2022-12-11T06:23:38;15.80;;;7.30;;
71606;SDS011;60641;53.556;9.914;2022-12-11T06:26:04;14.10;;;5.90;;
71606;SDS011;60641;53.556;9.914;2022-12-11T06:28:31;14.70;;;6.30;;
71606;SDS011;60641;53.556;9.914;2022-12-11T06:30:59;14.20;;;5.90;;
71606;SDS011;60641;53.556;9.914;2022-12-11T06:33:26;14.20;;;6.40;;
71606;SDS011;60641;53.556;9.914;2022-12-11T06:35:52;14.50;;;6.40;;
71606;SDS011;60641;53.556;9.914;2022-12-11T06:38:19;13.50;;;6.10;;
71606;SDS011;60641;53.556;9.914;2022-12-11T06:40:45;13.60;;;6.30;;
71606;SDS011;60641;53.556;9.914;2022-12-11T06:43:20;14.60;;;6.80;;
71606;SDS011;60641;53.556;9.914;2022-12-11T06:45:46;14.70;;;6.70;;
71606;SDS011;60641;53.556;9.914;2022-12-11T06:48:13;14.70;;;6.40;;
71606;SDS011;60641;53.556;9.914;2022-12-11T06:50:40;14.70;;;6.60;;
71606;SDS011;60641;53.556;9.914;2022-12-11T06:53:06;15.00;;;6.80;;
71606;SDS011;60641;53.556;9.914;2022-12-11T06:55:36;14.90;;;7.40;;
71606;SDS011;60641;53.556;9.914;2022-12-11T06:58:02;16.90;;;7.20;;
71606;SDS011;60641;53.556;9.914;2022-12-11T07:00:29;14.50;;;7.00;;
71606;SDS011;60641;53.556;9.914;2022-12-11T07:02:56;18.90;;;7.30;;
71606;SDS011;60641;53.556;9.914;2022-12-11T07:05:22;14.60;;;6.80;;
71606;SDS011;60641;53.556;9.914;2022-12-11T07:07:49;17.20;;;7.80;;
71606;SDS011;60641;53.556;9.914;2022-12-11T07:10:19;13.00;;;6.60;;
71606;SDS011;60641;53.556;9.914;2022-12-11T07:12:46;16.30;;;6.80;;
71606;SDS011;60641;53.556;9.914;2022-12-11T07:15:13;16.70;;;7.60;;
71606;SDS011;60641;53.556;9.914;2022-12-11T07:17:39;15.00;;;6.90;;
71606;SDS011;60641;53.556;9.914;2022-12-11T07:20:06;15.90;;;6.60;;
71606;SDS011;60641;53.556;9.914;2022-12-11T07:22:32;16.50;;;7.40;;
71606;SDS011;60641;53.556;9.914;2022-12-11T07:24:59;16.00;;;7.50;;
71606;SDS011;60641;53.556;9.914;2022-12-11T07:27:25;15.60;;;7.30;;
71606;SDS011;60641;53.556;9.914;2022-12-11T07:29:52;16.40;;;7.90;;
71606;SDS011;60641;53.556;9.914;2022-12-11T07:32:20;16.60;;;7.60;;
71606;SDS011;60641;53.556;9.914;2022-12-11T07:34:47;15.00;;;7.30;;
71606;SDS011;60641;53.556;9.914;2022-12-11T07:37:14;16.30;;;7.80;;
71606;SDS011;60641;53.556;9.914;2022-12-11T07:39:41;18.20;;;8.20;;
71606;SDS011;60641;53.556;9.914;2022-12-11T07:42:07;18.00;;;8.40;;
71606;SDS011;60641;53.556;9.914;2022-12-11T07:44:34;17.80;;;8.50;;
71606;SDS011;60641;53.556;9.914;2022-12-11T07:47:00;20.10;;;9.30;;
71606;SDS011;60641;53.556;9.914;2022-12-11T07:49:26;20.70;;;9.80;;
71606;SDS011;60641;53.556;9.914;2022-12-11T07:51:53;17.90;;;9.00;;
71606;SDS011;60641;53.556;9.914;2022-12-11T07:54:19;16.50;;;9.00;;
71606;SDS011;60641;53.556;9.914;2022-12-11T07:56:48;21.00;;;9.30;;
71606;SDS011;60641;53.556;9.914;2022-12-11T07:59:14;21.40;;;9.00;;
71606;SDS011;60641;53.556;9.914;2022-12-11T08:01:41;23.00;;;11.40;;
71606;SDS011;60641;53.556;9.914;2022-12-11T08:04:09;17.90;;;9.10;;
71606;SDS011;60641;53.556;9.914;2022-12-11T08:06:37;18.80;;;8.60;;
71606;SDS011;60641;53.556;9.914;2022-12-11T08:09:06;17.10;;;7.80;;
71606;SDS011;60641;53.556;9.914;2022-12-11T08:11:34;17.30;;;7.80;;
71606;SDS011;60641;53.556;9.914;2022-12-11T08:14:01;15.80;;;7.10;;
71606;SDS011;60641;53.556;9.914;2022-12-11T08:16:27;15.20;;;7.40;;
71606;SDS011;60641;53.556;9.914;2022-12-11T08:18:54;16.90;;;7.10;;
71606;SDS011;60641;53.556;9.914;2022-12-11T08:21:21;18.50;;;7.00;;
71606;SDS011;60641;53.556;9.914;2022-12-11T08:23:49;16.90;;;6.90;;
71606;SDS011;60641;53.556;9.914;2022-12-11T08:26:18;15.30;;;6.50;;
71606;SDS011;60641;53.556;9.914;2022-12-11T08:28:46;14.80;;;6.70;;
71606;SDS011;60641;53.556;9.914;2022-12-11T08:31:13;15.80;;;7.30;;
71606;SDS011;60641;53.556;9.914;2022-12-11T08:33:40;15.80;;;6.80;;
71606;SDS011;60641;53.556;9.914;2022-12-11T08:36:08;16.20;;;7.10;;
71606;SDS011;60641;53.556;9.914;2022-12-11T08:38:36;14.20;;;6.20;;
71606;SDS011;60641;53.556;9.914;2022-12-11T08:41:10;16.70;;;7.10;;
71606;SDS011;60641;53.556;9.914;2022-12-11T08:43:38;15.00;;;6.80;;
71606;SDS011;60641;53.556;9.914;2022-12-11T08:46:05;12.30;;;4.10;;
71606;SDS011;60641;53.556;9.914;2022-12-11T08:48:32;13.90;;;5.80;;
71606;SDS011;60641;53.556;9.914;2022-12-11T08:51:00;14.30;;;5.30;;
71606;SDS011;60641;53.556;9.914;2022-12-11T08:53:30;14.00;;;5.90;;
71606;SDS011;60641;53.556;9.914;2022-12-11T08:56:01;14.30;;;6.40;;
71606;SDS011;60641;53.556;9.914;2022-12-11T08:58:28;14.70;;;6.10;;
71606;SDS011;60641;53.556;9.914;2022-12-11T09:00:55;18.40;;;6.80;;
71606;SDS011;60641;53.556;9.914;2022-12-11T09:03:22;18.80;;;7.00;;
71606;SDS011;60641;53.556;9.914;2022-12-11T09:05:49;15.40;;;5.80;;
71606;SDS011;60641;53.556;9.914;2022-12-11T09:08:15;15.60;;;6.00;;
71606;SDS011;60641;53.556;9.914;2022-12-11T09:10:42;15.70;;;6.80;;
71606;SDS011;60641;53.556;9.914;2022-12-11T09:13:08;16.40;;;6.90;;
71606;SDS011;60641;53.556;9.914;2022-12-11T09:15:38;16.50;;;7.00;;
71606;SDS011;60641;53.556;9.914;2022-12-11T09:18:06;17.50;;;6.30;;
71606;SDS011;60641;53.556;9.914;2022-12-11T09:20:32;16.80;;;6.20;;
71606;SDS011;60641;53.556;9.914;2022-12-11T09:22:59;17.50;;;7.50;;
71606;SDS011;60641;53.556;9.914;2022-12-11T09:25:26;15.40;;;7.20;;
71606;SDS011;60641;53.556;9.914;2022-12-11T09:27:52;16.30;;;7.00;;
71606;SDS011;60641;53.556;9.914;2022-12-11T09:30:19;15.40;;;6.90;;
71606;SDS011;60641;53.556;9.914;2022-12-11T09:32:45;15.60;;;6.70;;
71606;SDS011;60641;53.556;9.914;2022-12-11T09:35:12;13.70;;;5.80;;
71606;SDS011;60641;53.556;9.914;2022-12-11T09:37:38;14.60;;;7.00;;
71606;SDS011;60641;53.556;9.914;2022-12-11T09:40:05;19.00;;;6.30;;
71606;SDS011;60641;53.556;9.914;2022-12-11T09:42:45;15.40;;;6.60;;
71606;SDS011;60641;53.556;9.914;2022-12-11T09:45:15;16.50;;;6.50;;
71606;SDS011;60641;53.556;9.914;2022-12-11T09:47:42;15.20;;;7.10;;
71606;SDS011;60641;53.556;9.914;2022-12-11T09:50:14;13.20;;;6.10;;
71606;SDS011;60641;53.556;9.914;2022-12-11T09:55:32;14.60;;;6.10;;
71606;SDS011;60641;53.556;9.914;2022-12-11T10:01:01;14.00;;;6.00;;
71606;SDS011;60641;53.556;9.914;2022-12-11T10:06:27;14.00;;;5.90;;
71606;SDS011;60641;53.556;9.914;2022-12-11T10:14:15;24.50;;;11.60;;
71606;SDS011;60641;53.556;9.914;2022-12-11T10:16:44;17.00;;;7.60;;
71606;SDS011;60641;53.556;9.914;2022-12-11T10:19:23;18.40;;;8.40;;
71606;SDS011;60641;53.556;9.914;2022-12-11T10:21:52;13.80;;;6.50;;
71606;SDS011;60641;53.556;9.914;2022-12-11T10:24:36;16.00;;;7.50;;
71606;SDS011;60641;53.556;9.914;2022-12-11T10:27:13;15.10;;;6.60;;
71606;SDS011;60641;53.556;9.914;2022-12-11T10:29:45;15.30;;;6.20;;
71606;SDS011;60641;53.556;9.914;2022-12-11T10:32:21;15.10;;;6.60;;
71606;SDS011;60641;53.556;9.914;2022-12-11T10:34:51;13.40;;;5.90;;
71606;SDS011;60641;53.556;9.914;2022-12-11T10:37:23;13.80;;;6.20;;
71606;SDS011;60641;53.556;9.914;2022-12-11T10:39:49;15.40;;;6.40;;
71606;SDS011;60641;53.556;9.914;2022-12-11T10:42:19;13.80;;;6.40;;
71606;SDS011;60641;53.556;9.914;2022-12-11T10:45:00;14.40;;;6.30;;
71606;SDS011;60641;53.556;9.914;2022-12-11T10:47:30;14.60;;;6.60;;
71606;SDS011;60641;53.556;9.914;2022-12-11T10:50:00;13.00;;;5.90;;
71606;SDS011;60641;53.556;9.914;2022-12-11T10:52:34;17.00;;;6.00;;
71606;SDS011;60641;53.556;9.914;2022-12-11T10:55:16;13.40;;;6.00;;
71606;SDS011;60641;53.556;9.914;2022-12-11T10:57:52;14.60;;;6.60;;
71606;SDS011;60641;53.556;9.914;2022-12-11T11:00:30;15.40;;;6.30;;
71606;SDS011;60641;53.556;9.914;2022-12-11T11:03:00;13.70;;;6.40;;
71606;SDS011;60641;53.556;9.914;2022-12-11T11:13:27;14.20;;;6.30;;
71606;SDS011;60641;53.556;9.914;2022-12-11T11:16:10;13.20;;;5.90;;
71606;SDS011;60641;53.556;9.914;2022-12-11T11:18:39;15.30;;;6.30;;
71606;SDS011;60641;53.556;9.914;2022-12-11T11:21:14;13.40;;;6.20;;
71606;SDS011;60641;53.556;9.914;2022-12-11T11:23:41;15.50;;;6.50;;
71606;SDS011;60641;53.556;9.914;2022-12-11T11:26:08;15.30;;;7.00;;
71606;SDS011;60641;53.556;9.914;2022-12-11T11:28:36;19.00;;;8.00;;
71606;SDS011;60641;53.556;9.914;2022-12-11T11:33:44;16.30;;;7.20;;
71606;SDS011;60641;53.556;9.914;2022-12-11T11:36:19;17.10;;;7.00;;
71606;SDS011;60641;53.556;9.914;2022-12-11T11:41:26;13.20;;;5.70;;
71606;SDS011;60641;53.556;9.914;2022-12-11T11:43:58;14.90;;;6.40;;
71606;SDS011;60641;53.556;9.914;2022-12-11T11:51:42;13.30;;;6.10;;
71606;SDS011;60641;53.556;9.914;2022-12-11T11:54:41;13.70;;;6.00;;
71606;SDS011;60641;53.556;9.914;2022-12-11T11:57:14;13.70;;;6.50;;
71606;SDS011;60641;53.556;9.914;2022-12-11T12:00:06;14.50;;;6.30;;
71606;SDS011;60641;53.556;9.914;2022-12-11T12:02:41;13.40;;;6.40;;
71606;SDS011;60641;53.556;9.914;2022-12-11T12:05:12;15.20;;;6.80;;
71606;SDS011;60641;53.556;9.914;2022-12-11T12:19:40;14.10;;;6.00;;
71606;SDS011;60641;53.556;9.914;2022-12-11T12:22:30;15.20;;;6.80;;
71606;SDS011;60641;53.556;9.914;2022-12-11T12:27:45;14.30;;;5.90;;
71606;SDS011;60641;53.556;9.914;2022-12-11T12:30:37;14.60;;;6.10;;
71606;SDS011;60641;53.556;9.914;2022-12-11T12:35:52;15.70;;;6.20;;
71606;SDS011;60641;53.556;9.914;2022-12-11T12:44:47;13.70;;;5.70;;
71606;SDS011;60641;53.556;9.914;2022-12-11T12:47:19;15.50;;;7.00;;
71606;SDS011;60641;53.556;9.914;2022-12-11T12:49:48;13.00;;;6.10;;
71606;SDS011;60641;53.556;9.914;2022-12-11T12:54:59;14.40;;;6.50;;
71606;SDS011;60641;53.556;9.914;2022-12-11T13:00:39;15.00;;;6.40;;
71606;SDS011;60641;53.556;9.914;2022-12-11T13:03:18;17.20;;;6.90;;
71606;SDS011;60641;53.556;9.914;2022-12-11T13:05:57;20.80;;;10.40;;
71606;SDS011;60641;53.556;9.914;2022-12-11T13:08:29;16.10;;;7.90;;
71606;SDS011;60641;53.556;9.914;2022-12-11T13:11:08;17.00;;;7.60;;
71606;SDS011;60641;53.556;9.914;2022-12-11T13:13:43;14.50;;;6.60;;
71606;SDS011;60641;53.556;9.914;2022-12-11T13:18:42;18.60;;;6.40;;
71606;SDS011;60641;53.556;9.914;2022-12-11T13:23:51;15.30;;;7.00;;
71606;SDS011;60641;53.556;9.914;2022-12-11T13:26:28;15.30;;;6.70;;
71606;SDS011;60641;53.556;9.914;2022-12-11T13:28:56;14.00;;;6.40;;
71606;SDS011;60641;53.556;9.914;2022-12-11T13:31:31;15.30;;;6.40;;
71606;SDS011;60641;53.556;9.914;2022-12-11T13:34:20;14.10;;;6.30;;
71606;SDS011;60641;53.556;9.914;2022-12-11T13:36:48;15.20;;;6.90;;
71606;SDS011;60641;53.556;9.914;2022-12-11T13:41:58;12.70;;;5.60;;
71606;SDS011;60641;53.556;9.914;2022-12-11T13:44:32;14.90;;;6.60;;
71606;SDS011;60641;53.556;9.914;2022-12-11T13:47:04;14.70;;;5.90;;
71606;SDS011;60641;53.556;9.914;2022-12-11T13:49:34;13.10;;;5.60;;
71606;SDS011;60641;53.556;9.914;2022-12-11T13:52:03;14.00;;;6.20;;
71606;SDS011;60641;53.556;9.914;2022-12-11T13:54:31;15.20;;;6.50;;
71606;SDS011;60641;53.556;9.914;2022-12-11T13:57:01;16.30;;;6.30;;
71606;SDS011;60641;53.556;9.914;2022-12-11T13:59:33;14.10;;;6.50;;
71606;SDS011;60641;53.556;9.914;2022-12-11T14:02:09;16.10;;;6.20;;
71606;SDS011;60641;53.556;9.914;2022-12-11T14:04:41;16.90;;;6.00;;
71606;SDS011;60641;53.556;9.914;2022-12-11T14:07:08;14.20;;;6.20;;
71606;SDS011;60641;53.556;9.914;2022-12-11T14:09:36;16.50;;;6.50;;
71606;SDS011;60641;53.556;9.914;2022-12-11T14:12:04;14.50;;;6.40;;
71606;SDS011;60641;53.556;9.914;2022-12-11T14:14:41;17.30;;;6.90;;
71606;SDS011;60641;53.556;9.914;2022-12-11T14:17:13;15.90;;;6.80;;
71606;SDS011;60641;53.556;9.914;2022-12-11T14:19:44;15.80;;;6.90;;
71606;SDS011;60641;53.556;9.914;2022-12-11T14:22:17;17.00;;;6.90;;
71606;SDS011;60641;53.556;9.914;2022-12-11T14:24:55;16.10;;;6.70;;
71606;SDS011;60641;53.556;9.914;2022-12-11T14:27:24;17.60;;;6.80;;
71606;SDS011;60641;53.556;9.914;2022-12-11T14:29:51;16.80;;;6.60;;
71606;SDS011;60641;53.556;9.914;2022-12-11T14:32:34;16.50;;;7.60;;
71606;SDS011;60641;53.556;9.914;2022-12-11T14:35:03;16.60;;;7.30;;
71606;SDS011;60641;53.556;9.914;2022-12-11T14:37:31;16.20;;;6.90;;
71606;SDS011;60641;53.556;9.914;2022-12-11T14:40:00;13.90;;;6.60;;
71606;SDS011;60641;53.556;9.914;2022-12-11T14:42:30;19.00;;;7.30;;
71606;SDS011;60641;53.556;9.914;2022-12-11T14:45:14;17.60;;;7.30;;
71606;SDS011;60641;53.556;9.914;2022-12-11T14:47:42;16.10;;;6.90;;
71606;SDS011;60641;53.556;9.914;2022-12-11T14:50:22;15.80;;;7.20;;
71606;SDS011;60641;53.556;9.914;2022-12-11T14:52:53;15.20;;;7.20;;
71606;SDS011;60641;53.556;9.914;2022-12-11T14:57:56;42.00;;;13.60;;
71606;SDS011;60641;53.556;9.914;2022-12-11T15:00:32;44.40;;;16.90;;
71606;SDS011;60641;53.556;9.914;2022-12-11T15:05:49;44.80;;;14.90;;
71606;SDS011;60641;53.556;9.914;2022-12-11T15:08:18;26.00;;;11.30;;
71606;SDS011;60641;53.556;9.914;2022-12-11T15:13:26;12.10;;;6.60;;
71606;SDS011;60641;53.556;9.914;2022-12-11T15:15:53;16.40;;;7.10;;
71606;SDS011;60641;53.556;9.914;2022-12-11T15:18:21;15.70;;;6.70;;
71606;SDS011;60641;53.556;9.914;2022-12-11T15:20:57;18.40;;;7.40;;
71606;SDS011;60641;53.556;9.914;2022-12-11T15:23:25;16.00;;;7.30;;
71606;SDS011;60641;53.556;9.914;2022-12-11T15:25:56;20.10;;;7.10;;
71606;SDS011;60641;53.556;9.914;2022-12-11T15:28:35;15.30;;;7.20;;
71606;SDS011;60641;53.556;9.914;2022-12-11T15:31:05;19.10;;;7.10;;
71606;SDS011;60641;53.556;9.914;2022-12-11T15:33:43;16.90;;;7.00;;
71606;SDS011;60641;53.556;9.914;2022-12-11T15:36:22;18.60;;;8.10;;
71606;SDS011;60641;53.556;9.914;2022-12-11T15:38:51;17.60;;;7.20;;
71606;SDS011;60641;53.556;9.914;2022-12-11T15:41:18;17.20;;;7.50;;
71606;SDS011;60641;53.556;9.914;2022-12-11T15:43:50;16.80;;;8.10;;
71606;SDS011;60641;53.556;9.914;2022-12-11T15:46:18;20.10;;;9.50;;
71606;SDS011;60641;53.556;9.914;2022-12-11T15:48:46;24.90;;;11.40;;
71606;SDS011;60641;53.556;9.914;2022-12-11T15:51:13;25.60;;;12.70;;
71606;SDS011;60641;53.556;9.914;2022-12-11T15:53:40;19.50;;;9.70;;
71606;SDS011;60641;53.556;9.914;2022-12-11T15:56:16;19.20;;;9.20;;
71606;SDS011;60641;53.556;9.914;2022-12-11T15:58:43;21.20;;;9.40;;
71606;SDS011;60641;53.556;9.914;2022-12-11T16:01:10;18.70;;;9.20;;
71606;SDS011;60641;53.556;9.914;2022-12-11T16:03:37;19.50;;;8.60;;
71606;SDS011;60641;53.556;9.914;2022-12-11T16:06:03;17.10;;;7.90;;
71606;SDS011;60641;53.556;9.914;2022-12-11T16:08:30;18.10;;;8.30;;
71606;SDS011;60641;53.556;9.914;2022-12-11T16:10:56;18.30;;;7.50;;
71606;SDS011;60641;53.556;9.914;2022-12-11T16:13:23;17.40;;;8.00;;
71606;SDS011;60641;53.556;9.914;2022-12-11T16:15:50;18.20;;;8.30;;
71606;SDS011;60641;53.556;9.914;2022-12-11T16:18:18;17.10;;;8.30;;
71606;SDS011;60641;53.556;9.914;2022-12-11T16:20:46;18.30;;;7.80;;
71606;SDS011;60641;53.556;9.914;2022-12-11T16:23:13;18.50;;;8.50;;
71606;SDS011;60641;53.556;9.914;2022-12-11T16:25:40;20.20;;;8.40;;
71606;SDS011;60641;53.556;9.914;2022-12-11T16:28:07;18.10;;;7.50;;
71606;SDS011;60641;53.556;9.914;2022-12-11T16:30:35;17.30;;;7.70;;